EGPH/EDI METAR and TAF weather

Enter ICAO airport designator
Station Type Date Time Source
EGPH METAR 2019/10/20 18:50 UTC NOAA

EGPH 201850Z 03006KT 9999 SCT043 08/04 Q1021


Station Type Date Time Source
EGPH Decoded METAR 2019/10/20 18:50 UTC NOAA

Edinburgh Airport, United Kingdom (EGPH) 55-57N 003-21W 0M
Oct 20, 2019 - 02:50 PM EDT / 2019.10.20 1850 UTC
Wind: from the NNE (030 degrees) at 7 MPH (6 KT):0
Visibility: greater than 7 mile(s):0
Sky conditions: partly cloudy
Temperature: 46 F (8 C)
Dew Point: 39 F (4 C)
Relative Humidity: 75%
Pressure (altimeter): 30.15 in. Hg (1021 hPa)
ob: EGPH 201850Z 03006KT 9999 SCT043 08/04 Q1021
cycle: 19

Station Type Date Time Source
EGPH TAF 2019/10/20 18:06 UTC NOAA

TAF EGPH 201658Z 2018/2118 VRB03KT 9999 SCT035

Example: see airport list